Wetterdaten: Woche 19.02.18 - 25.02.18 (KW8)
Datum Zeit Temp. A. Pool Temp. Feuchte A. Luftdruck Regen Wind Richtung Sonnenschein ET UV Solar Taupunkt Windchill Windben Empfang
19.02.2018 00:00 -0,8 C 3,9 C 89 % 1024,4 hPa 0,0 l/m 12,3 km/h (3 Bft) O-NO 0,00 h 0,000 mm 0,0 UV-I 0 W/m -2,4 C -6,1 C 16,9 km/h (3 Bft) 99,07 %
19.02.2018 01:00 -1,1 C 3,9 C 88 % 1023,9 hPa 0,2 l/m 15,0 km/h (3 Bft) O-NO 0,00 h 0,000 mm 0,0 UV-I 0 W/m -2,7 C -8,2 C 19,1 km/h (3 Bft) 98,21 %
19.02.2018 02:00 -1,3 C 3,9 C 90 % 1023,4 hPa 0,0 l/m 14,9 km/h (3 Bft) O-NO 0,00 h 0,025 mm 0,0 UV-I 0 W/m -2,8 C -8,4 C 19,6 km/h (3 Bft) 97,35 %
19.02.2018 03:00 -1,6 C 3,9 C 86 % 1022,8 hPa 0,0 l/m 16,7 km/h (3 Bft) O-NO 0,00 h 0,000 mm 0,0 UV-I 0 W/m -3,6 C -9,9 C 21,6 km/h (4 Bft) 97,23 %
19.02.2018 04:00 -2,0 C 3,9 C 86 % 1022,5 hPa 0,0 l/m 14,9 km/h (3 Bft) O-NO 0,00 h 0,026 mm 0,0 UV-I 0 W/m -4,0 C -9,2 C 19,7 km/h (3 Bft) 98,70 %
19.02.2018 05:00 -2,5 C 3,9 C 89 % 1022,0 hPa 0,0 l/m 15,3 km/h (3 Bft) O-NO 0,00 h 0,025 mm 0,0 UV-I 0 W/m -4,1 C -10,2 C 19,6 km/h (3 Bft) 98,06 %
19.02.2018 06:00 -3,0 C 3,9 C 90 % 1021,7 hPa 0,0 l/m 13,9 km/h (3 Bft) O-NO 0,00 h 0,000 mm 0,0 UV-I 5 W/m -4,3 C -9,7 C 18,3 km/h (3 Bft) 96,50 %
19.02.2018 07:00 -3,3 C 3,9 C 91 % 1021,4 hPa 0,0 l/m 15,6 km/h (3 Bft) O-NO 0,62 h 0,000 mm 0,0 UV-I 43 W/m -4,5 C -11,3 C 20,0 km/h (4 Bft) 97,31 %
19.02.2018 08:00 -3,1 C 3,9 C 90 % 1021,1 hPa 0,0 l/m 15,1 km/h (3 Bft) O 1,00 h 0,026 mm 0,0 UV-I 180 W/m -4,5 C -10,7 C 20,0 km/h (4 Bft) 98,36 %
19.02.2018 09:00 -2,3 C 3,9 C 87 % 1020,5 hPa 0,0 l/m 18,0 km/h (3 Bft) O 1,00 h 0,050 mm 0,6 UV-I 328 W/m -4,1 C -11,4 C 23,0 km/h (4 Bft) 98,13 %
19.02.2018 10:00 -1,4 C 3,9 C 84 % 1020,1 hPa 0,0 l/m 16,4 km/h (3 Bft) O 1,00 h 0,102 mm 1,0 UV-I 421 W/m -3,8 C -9,5 C 21,1 km/h (4 Bft) 98,38 %
19.02.2018 11:00 -0,6 C 3,9 C 81 % 1019,7 hPa 0,0 l/m 16,6 km/h (3 Bft) O 1,00 h 0,152 mm 1,3 UV-I 503 W/m -3,5 C -8,6 C 22,2 km/h (4 Bft) 98,69 %
19.02.2018 12:00 0,1 C 3,9 C 78 % 1019,1 hPa 0,0 l/m 14,3 km/h (3 Bft) O 1,00 h 0,178 mm 1,4 UV-I 512 W/m -3,2 C -6,3 C 19,1 km/h (3 Bft) 98,10 %
19.02.2018 13:00 0,6 C 3,9 C 78 % 1018,5 hPa 0,0 l/m 10,4 km/h (2 Bft) O 1,00 h 0,178 mm 1,2 UV-I 464 W/m -2,8 C -3,0 C 13,8 km/h (3 Bft) 97,57 %
19.02.2018 14:00 1,0 C 3,9 C 78 % 1018,0 hPa 0,0 l/m 10,1 km/h (2 Bft) O 0,80 h 0,178 mm 0,8 UV-I 333 W/m -2,4 C -2,4 C 13,8 km/h (3 Bft) 96,83 %
19.02.2018 15:00 0,6 C 3,9 C 82 % 1017,5 hPa 0,0 l/m 8,8 km/h (2 Bft) O 0,62 h 0,127 mm 0,5 UV-I 190 W/m -2,1 C -2,0 C 12,7 km/h (3 Bft) 95,66 %
19.02.2018 16:00 0,4 C 3,9 C 85 % 1017,3 hPa 0,0 l/m 7,5 km/h (2 Bft) O-NO 0,12 h 0,076 mm 0,0 UV-I 41 W/m -1,8 C -1,2 C 10,7 km/h (2 Bft) 98,34 %
19.02.2018 17:00 0,3 C 3,9 C 87 % 1017,2 hPa 0,0 l/m 1,8 km/h (1 Bft) O 0,00 h 0,025 mm 0,0 UV-I 8 W/m -1,7 C 0,3 C 3,0 km/h (1 Bft) 97,72 %
19.02.2018 18:00 0,3 C 3,9 C 88 % 1017,1 hPa 0,0 l/m 4,1 km/h (1 Bft) O 0,00 h 0,000 mm 0,0 UV-I 0 W/m -1,5 C -0,5 C 6,3 km/h (2 Bft) 98,87 %
19.02.2018 19:00 0,1 C 3,9 C 85 % 1017,1 hPa 0,0 l/m 7,9 km/h (2 Bft) S 0,00 h 0,000 mm 0,0 UV-I 0 W/m -2,1 C -1,9 C 11,2 km/h (2 Bft) 95,59 %
19.02.2018 20:00 -0,2 C 3,9 C 86 % 1017,0 hPa 0,0 l/m 4,4 km/h (1 Bft) S-SW 0,00 h 0,000 mm 0,0 UV-I 0 W/m -2,2 C -0,2 C 6,3 km/h (2 Bft) 97,92 %
19.02.2018 21:00 -0,2 C 3,9 C 87 % 1016,7 hPa 0,0 l/m 2,9 km/h (1 Bft) S-SW 0,00 h 0,000 mm 0,0 UV-I 0 W/m -2,1 C -0,2 C 4,4 km/h (1 Bft) 97,72 %
19.02.2018 22:00 -0,2 C 3,9 C 88 % 1016,3 hPa 0,0 l/m 5,8 km/h (2 Bft) SO 0,00 h 0,000 mm 0,0 UV-I 0 W/m -2,0 C -0,5 C 8,1 km/h (2 Bft) 99,21 %
19.02.2018 23:00 -0,4 C 3,9 C 87 % 1016,2 hPa 0,0 l/m 8,0 km/h (2 Bft) SO 0,00 h 0,000 mm 0,0 UV-I 0 W/m -2,3 C -2,2 C 11,2 km/h (2 Bft) 96,64 %
20.02.2018 00:00 -0,6 C 3,9 C 86 % 1016,2 hPa 0,0 l/m 7,7 km/h (2 Bft) O 0,00 h 0,000 mm 0,0 UV-I 0 W/m -2,6 C -2,1 C 10,5 km/h (2 Bft) 97,48 %
20.02.2018 01:00 -0,9 C 3,9 C 88 % 1015,7 hPa 0,0 l/m 5,3 km/h (1 Bft) O-NO 0,00 h 0,000 mm 0,0 UV-I 0 W/m -2,7 C -1,2 C 7,3 km/h (2 Bft) 98,49 %
20.02.2018 02:00 -1,2 C 3,9 C 89 % 1015,5 hPa 0,0 l/m 6,2 km/h (2 Bft) NO 0,00 h 0,000 mm 0,0 UV-I 0 W/m -2,7 C -1,7 C 8,0 km/h (2 Bft) 98,53 %
20.02.2018 03:00 -1,2 C 3,9 C 90 % 1015,2 hPa 0,0 l/m 6,8 km/h (2 Bft) O-NO 0,00 h 0,000 mm 0,0 UV-I 0 W/m -2,7 C -1,9 C 9,2 km/h (2 Bft) 97,44 %
20.02.2018 04:00 -1,5 C 3,9 C 91 % 1015,1 hPa 0,0 l/m 6,5 km/h (2 Bft) O-NO 0,00 h 0,000 mm 0,0 UV-I 0 W/m -2,7 C -2,3 C 9,0 km/h (2 Bft) 97,97 %
20.02.2018 05:00 -1,8 C 3,9 C 94 % 1015,1 hPa 0,0 l/m 5,7 km/h (1 Bft) O 0,00 h 0,000 mm 0,0 UV-I 0 W/m -2,7 C -1,9 C 7,9 km/h (2 Bft) 99,10 %
20.02.2018 06:00 -1,8 C 3,9 C 95 % 1015,2 hPa 0,0 l/m 4,0 km/h (1 Bft) O 0,00 h 0,000 mm 0,0 UV-I 5 W/m -2,5 C -1,8 C 5,5 km/h (1 Bft) 97,38 %
20.02.2018 07:00 -1,8 C 3,9 C 95 % 1015,4 hPa 0,0 l/m 4,4 km/h (1 Bft) O-NO 0,03 h 0,000 mm 0,0 UV-I 21 W/m -2,5 C -1,9 C 5,8 km/h (2 Bft) 97,07 %
20.02.2018 08:00 -1,8 C 3,9 C 95 % 1015,5 hPa 0,0 l/m 4,2 km/h (1 Bft) NO 0,00 h 0,000 mm 0,0 UV-I 91 W/m -2,5 C -1,8 C 5,4 km/h (1 Bft) 98,46 %
20.02.2018 09:00 -1,5 C 3,9 C 94 % 1015,5 hPa 0,0 l/m 4,8 km/h (1 Bft) O 0,52 h 0,025 mm 0,6 UV-I 201 W/m -2,4 C -1,5 C 6,4 km/h (2 Bft) 98,81 %
20.02.2018 10:00 -1,2 C 3,9 C 91 % 1015,4 hPa 0,4 l/m 5,9 km/h (2 Bft) O-NO 0,00 h 0,077 mm 0,5 UV-I 176 W/m -2,4 C -1,5 C 8,4 km/h (2 Bft) 98,89 %
20.02.2018 11:00 -0,9 C 3,9 C 90 % 1015,3 hPa 0,2 l/m 4,6 km/h (1 Bft) O 0,00 h 0,050 mm 0,6 UV-I 196 W/m -2,3 C -1,1 C 6,5 km/h (2 Bft) 96,56 %
20.02.2018 12:00 -0,6 C 3,9 C 89 % 1015,0 hPa 0,0 l/m 3,0 km/h (1 Bft) O 0,00 h 0,077 mm 0,6 UV-I 191 W/m -2,2 C -0,6 C 4,6 km/h (1 Bft) 96,85 %
20.02.2018 13:00 -0,2 C 3,9 C 88 % 1014,7 hPa 0,0 l/m 2,8 km/h (1 Bft) O 0,00 h 0,076 mm 0,7 UV-I 220 W/m -1,9 C -0,2 C 4,3 km/h (1 Bft) 98,63 %
20.02.2018 14:00 0,0 C 3,9 C 89 % 1014,5 hPa 0,0 l/m 1,5 km/h (1 Bft) O-SO 0,00 h 0,076 mm 0,5 UV-I 167 W/m -1,5 C 0,0 C 2,6 km/h (1 Bft) 98,26 %
20.02.2018 15:00 0,1 C 3,9 C 89 % 1014,3 hPa 0,0 l/m 0,9 km/h (0 Bft) O-SO 0,00 h 0,051 mm 0,0 UV-I 94 W/m -1,5 C 0,1 C 1,4 km/h (1 Bft) 99,00 %
20.02.2018 16:00 -0,2 C 3,9 C 92 % 1014,4 hPa 0,0 l/m 0,4 km/h (0 Bft) O-SO 0,00 h 0,025 mm 0,0 UV-I 22 W/m -1,4 C -0,2 C 0,7 km/h (0 Bft) 97,36 %
20.02.2018 17:00 -0,5 C 3,9 C 93 % 1014,8 hPa 0,0 l/m 0,5 km/h (0 Bft) O-SO 0,00 h 0,000 mm 0,0 UV-I 5 W/m -1,5 C -0,5 C 0,7 km/h (0 Bft) 96,66 %
20.02.2018 18:00 -0,7 C 3,9 C 95 % 1015,1 hPa 0,0 l/m 0,0 km/h (0 Bft) N 0,00 h 0,000 mm 0,0 UV-I 0 W/m -1,4 C -0,7 C 0,0 km/h (0 Bft) 97,87 %
20.02.2018 19:00 -0,7 C 3,9 C 95 % 1015,5 hPa 0,0 l/m 0,3 km/h (0 Bft) O-SO 0,00 h 0,000 mm 0,0 UV-I 0 W/m -1,4 C -0,7 C 0,5 km/h (0 Bft) 99,02 %
20.02.2018 20:00 -0,7 C 3,9 C 96 % 1015,8 hPa 0,0 l/m 0,0 km/h (0 Bft) N 0,00 h 0,000 mm 0,0 UV-I 0 W/m -1,3 C -0,7 C 0,1 km/h (0 Bft) 96,42 %
20.02.2018 21:00 -0,7 C 3,9 C 97 % 1016,1 hPa 0,0 l/m 0,6 km/h (0 Bft) O-SO 0,00 h 0,000 mm 0,0 UV-I 0 W/m -1,1 C -0,7 C 1,1 km/h (0 Bft) 97,60 %
20.02.2018 22:00 -0,7 C 3,9 C 97 % 1016,2 hPa 0,0 l/m 1,5 km/h (1 Bft) S-SW 0,00 h 0,000 mm 0,0 UV-I 0 W/m -1,1 C -0,7 C 2,4 km/h (1 Bft) 97,22 %
20.02.2018 23:00 -0,7 C 3,9 C 97 % 1016,3 hPa 0,0 l/m 0,0 km/h (0 Bft) N 0,00 h 0,000 mm 0,0 UV-I 0 W/m -1,2 C -0,7 C 0,0 km/h (0 Bft) 99,14 %
21.02.2018 00:00 -0,8 C 3,9 C 97 % 1016,3 hPa 0,0 l/m 0,0 km/h (0 Bft) N 0,00 h 0,000 mm 0,0 UV-I 0 W/m -1,2 C -0,8 C 0,1 km/h (0 Bft) 92,54 %
21.02.2018 01:00 -1,0 C 3,9 C 97 % 1016,6 hPa 0,0 l/m 0,0 km/h (0 Bft) N 0,00 h 0,000 mm 0,0 UV-I 0 W/m -1,4 C -1,0 C 0,1 km/h (0 Bft) 97,95 %
21.02.2018 02:00 -1,1 C 3,9 C 96 % 1016,7 hPa 0,0 l/m 0,0 km/h (0 Bft) N 0,00 h 0,000 mm 0,0 UV-I 0 W/m -1,6 C -1,1 C 0,1 km/h (0 Bft) 98,32 %
21.02.2018 03:00 -1,1 C 3,9 C 96 % 1016,7 hPa 0,0 l/m 0,0 km/h (0 Bft) N 0,00 h 0,000 mm 0,0 UV-I 0 W/m -1,7 C -1,1 C 0,1 km/h (0 Bft) 98,55 %
21.02.2018 04:00 -1,2 C 3,9 C 95 % 1016,9 hPa 0,0 l/m 0,0 km/h (0 Bft) N 0,00 h 0,000 mm 0,0 UV-I 0 W/m -1,9 C -1,2 C 0,1 km/h (0 Bft) 96,28 %
21.02.2018 05:00 -1,5 C 3,9 C 96 % 1017,2 hPa 0,0 l/m 0,0 km/h (0 Bft) N 0,00 h 0,000 mm 0,0 UV-I 0 W/m -2,1 C -1,5 C 0,0 km/h (0 Bft) 98,34 %
21.02.2018 06:00 -1,7 C 3,9 C 96 % 1017,6 hPa 0,0 l/m 0,0 km/h (0 Bft) N 0,00 h 0,000 mm 0,0 UV-I 0 W/m -2,2 C -1,7 C 0,0 km/h (0 Bft) 99,27 %
21.02.2018 07:00 -1,6 C 3,9 C 95 % 1018,1 hPa 0,0 l/m 0,5 km/h (0 Bft) N-NW 0,00 h 0,000 mm 0,0 UV-I 9 W/m -2,3 C -1,6 C 1,0 km/h (0 Bft) 97,05 %
21.02.2018 08:00 -1,5 C 3,9 C 94 % 1018,6 hPa 0,0 l/m 1,7 km/h (1 Bft) N-NO 0,00 h 0,000 mm 0,0 UV-I 28 W/m -2,4 C -1,5 C 2,7 km/h (1 Bft) 97,21 %
21.02.2018 09:00 -1,6 C 3,9 C 92 % 1018,8 hPa 0,0 l/m 4,0 km/h (1 Bft) NO 0,00 h 0,000 mm 0,0 UV-I 77 W/m -2,8 C -1,6 C 5,4 km/h (1 Bft) 98,18 %
21.02.2018 10:00 -1,2 C 3,9 C 90 % 1018,9 hPa 0,0 l/m 4,4 km/h (1 Bft) NO 0,00 h 0,025 mm 0,0 UV-I 109 W/m -2,6 C -1,2 C 5,9 km/h (2 Bft) 98,73 %
21.02.2018 11:00 -0,7 C 3,9 C 88 % 1018,7 hPa 1,2 l/m 2,9 km/h (1 Bft) NO 0,00 h 0,026 mm 0,5 UV-I 108 W/m -2,3 C -0,7 C 4,1 km/h (1 Bft) 98,31 %
21.02.2018 12:00 -0,3 C 3,9 C 86 % 1018,4 hPa 0,8 l/m 1,7 km/h (1 Bft) O-NO 0,00 h 0,025 mm 0,7 UV-I 183 W/m -2,3 C -0,3 C 2,7 km/h (1 Bft) 98,64 %
21.02.2018 13:00 -0,0 C 3,9 C 84 % 1018,0 hPa 0,0 l/m 2,0 km/h (1 Bft) O-NO 0,00 h 0,051 mm 0,6 UV-I 204 W/m -2,4 C -0,0 C 3,3 km/h (1 Bft) 97,33 %
21.02.2018 14:00 0,2 C 3,9 C 83 % 1017,9 hPa 0,0 l/m 3,1 km/h (1 Bft) S-SO 0,00 h 0,076 mm 0,5 UV-I 135 W/m -2,4 C 0,2 C 5,0 km/h (1 Bft) 96,03 %
21.02.2018 15:00 0,1 C 3,9 C 83 % 1017,8 hPa 0,0 l/m 3,8 km/h (1 Bft) SO 0,00 h 0,051 mm 0,0 UV-I 66 W/m -2,4 C 0,1 C 5,5 km/h (1 Bft) 98,15 %
21.02.2018 16:00 -0,1 C 3,9 C 84 % 1018,1 hPa 0,0 l/m 3,0 km/h (1 Bft) O-SO 0,00 h 0,025 mm 0,0 UV-I 24 W/m -2,4 C -0,1 C 4,5 km/h (1 Bft) 99,21 %
21.02.2018 17:00 -0,5 C 3,9 C 87 % 1018,4 hPa 0,0 l/m 4,1 km/h (1 Bft) S-SO 0,00 h 0,000 mm 0,0 UV-I 8 W/m -2,4 C -0,6 C 6,0 km/h (2 Bft) 97,35 %
21.02.2018 18:00 -0,9 C 3,9 C 90 % 1018,8 hPa 0,0 l/m 4,4 km/h (1 Bft) S 0,00 h 0,000 mm 0,0 UV-I 0 W/m -2,4 C -1,0 C 6,4 km/h (2 Bft) 97,28 %
21.02.2018 19:00 -1,1 C 3,9 C 90 % 1018,9 hPa 0,0 l/m 2,0 km/h (1 Bft) S-SO 0,00 h 0,000 mm 0,0 UV-I 0 W/m -2,5 C -1,1 C 3,3 km/h (1 Bft) 97,83 %
21.02.2018 20:00 -0,9 C 3,9 C 90 % 1019,0 hPa 0,0 l/m 1,9 km/h (1 Bft) S-SO 0,00 h 0,000 mm 0,0 UV-I 0 W/m -2,3 C -0,9 C 2,9 km/h (1 Bft) 99,00 %
21.02.2018 21:00 -1,0 C 4,1 C 91 % 1019,1 hPa 0,0 l/m 3,1 km/h (1 Bft) NO 0,00 h 0,000 mm 0,0 UV-I 0 W/m -2,3 C -1,0 C 4,2 km/h (1 Bft) 96,26 %
21.02.2018 22:00 -1,0 C 4,4 C 92 % 1018,9 hPa 0,0 l/m 6,3 km/h (2 Bft) O-NO 0,00 h 0,000 mm 0,0 UV-I 0 W/m -2,1 C -1,9 C 8,6 km/h (2 Bft) 98,46 %
21.02.2018 23:00 -1,3 C 4,2 C 90 % 1018,8 hPa 0,2 l/m 17,0 km/h (3 Bft) O 0,00 h 0,000 mm 0,0 UV-I 0 W/m -2,7 C -9,4 C 22,3 km/h (4 Bft) 97,81 %
22.02.2018 00:00 -1,9 C 4,2 C 87 % 1018,9 hPa 0,0 l/m 18,3 km/h (3 Bft) O 0,00 h 0,000 mm 0,0 UV-I 0 W/m -3,7 C -11,1 C 24,0 km/h (4 Bft) 99,27 %
22.02.2018 01:00 -2,1 C 4,1 C 86 % 1018,7 hPa 0,0 l/m 18,5 km/h (3 Bft) O 0,00 h 0,025 mm 0,0 UV-I 0 W/m -4,1 C -11,5 C 24,0 km/h (4 Bft) 95,60 %
22.02.2018 02:00 -2,3 C 3,9 C 87 % 1018,3 hPa 0,0 l/m 14,2 km/h (3 Bft) O 0,00 h 0,026 mm 0,0 UV-I 0 W/m -4,1 C -9,0 C 18,8 km/h (3 Bft) 98,07 %
22.02.2018 03:00 -2,5 C 3,9 C 89 % 1017,9 hPa 0,0 l/m 13,1 km/h (3 Bft) O 0,00 h 0,025 mm 0,0 UV-I 0 W/m -4,1 C -8,7 C 16,8 km/h (3 Bft) 97,78 %
22.02.2018 04:00 -2,6 C 3,9 C 89 % 1017,4 hPa 0,0 l/m 13,0 km/h (3 Bft) O 0,00 h 0,000 mm 0,0 UV-I 0 W/m -4,2 C -8,6 C 16,8 km/h (3 Bft) 98,80 %
22.02.2018 05:00 -2,6 C 3,9 C 89 % 1017,2 hPa 0,0 l/m 13,9 km/h (3 Bft) O-NO 0,00 h 0,000 mm 0,0 UV-I 0 W/m -4,2 C -9,4 C 17,9 km/h (3 Bft) 96,39 %
22.02.2018 06:00 -2,7 C 3,9 C 90 % 1017,2 hPa 0,0 l/m 15,2 km/h (3 Bft) O 0,00 h 0,000 mm 0,0 UV-I 0 W/m -4,1 C -10,4 C 19,8 km/h (3 Bft) 98,24 %
22.02.2018 07:00 -2,8 C 3,9 C 90 % 1017,1 hPa 0,0 l/m 17,0 km/h (3 Bft) O-NO 0,00 h 0,000 mm 0,0 UV-I 14 W/m -4,2 C -11,5 C 21,0 km/h (4 Bft) 98,60 %
22.02.2018 08:00 -2,7 C 3,9 C 90 % 1017,5 hPa 0,0 l/m 14,5 km/h (3 Bft) O-NO 0,00 h 0,026 mm 0,0 UV-I 29 W/m -4,0 C -9,8 C 18,6 km/h (3 Bft) 98,51 %
22.02.2018 09:00 -2,6 C 3,9 C 90 % 1017,4 hPa 0,0 l/m 16,9 km/h (3 Bft) O-NO 0,00 h 0,025 mm 0,0 UV-I 59 W/m -4,1 C -11,2 C 21,4 km/h (4 Bft) 97,13 %
22.02.2018 10:00 -2,4 C 3,9 C 88 % 1017,5 hPa 0,0 l/m 16,4 km/h (3 Bft) O-NO 0,00 h 0,025 mm 0,0 UV-I 72 W/m -4,2 C -10,6 C 21,2 km/h (4 Bft) 97,40 %
22.02.2018 11:00 -2,2 C 3,9 C 87 % 1017,6 hPa 0,0 l/m 15,1 km/h (3 Bft) O 0,00 h 0,026 mm 0,5 UV-I 107 W/m -4,0 C -9,6 C 19,4 km/h (3 Bft) 98,76 %
22.02.2018 12:00 -2,3 C 3,9 C 89 % 1017,6 hPa 0,0 l/m 15,4 km/h (3 Bft) O 0,00 h 0,051 mm 0,5 UV-I 118 W/m -3,9 C -10,0 C 20,0 km/h (4 Bft) 98,64 %
22.02.2018 13:00 -2,4 C 3,9 C 92 % 1017,4 hPa 0,0 l/m 16,4 km/h (3 Bft) O 0,00 h 0,050 mm 0,5 UV-I 167 W/m -3,6 C -10,8 C 20,6 km/h (4 Bft) 98,02 %
22.02.2018 14:00 -2,5 C 3,9 C 92 % 1017,2 hPa 0,0 l/m 16,0 km/h (3 Bft) O 0,00 h 0,051 mm 0,4 UV-I 145 W/m -3,6 C -10,5 C 20,0 km/h (4 Bft) 96,66 %
22.02.2018 15:00 -2,2 C 3,9 C 91 % 1017,2 hPa 0,0 l/m 15,6 km/h (3 Bft) O-NO 0,00 h 0,051 mm 0,4 UV-I 119 W/m -3,5 C -10,0 C 19,8 km/h (3 Bft) 98,50 %
22.02.2018 16:00 -2,4 C 3,8 C 92 % 1017,4 hPa 0,0 l/m 12,9 km/h (3 Bft) O-NO 0,00 h 0,051 mm 0,0 UV-I 39 W/m -3,4 C -8,3 C 16,9 km/h (3 Bft) 98,78 %
22.02.2018 17:00 -2,6 C 3,5 C 94 % 1017,6 hPa 0,0 l/m 14,9 km/h (3 Bft) O-NO 0,05 h 0,025 mm 0,0 UV-I 12 W/m -3,4 C -9,9 C 18,5 km/h (3 Bft) 97,59 %
22.02.2018 18:00 -2,7 C 3,3 C 94 % 1017,8 hPa 0,0 l/m 14,6 km/h (3 Bft) O-NO 0,00 h 0,000 mm 0,0 UV-I 0 W/m -3,5 C -9,9 C 18,7 km/h (3 Bft) 96,91 %
22.02.2018 19:00 -2,8 C 3,3 C 93 % 1017,8 hPa 0,0 l/m 17,5 km/h (3 Bft) O 0,00 h 0,000 mm 0,0 UV-I 0 W/m -3,7 C -11,8 C 22,0 km/h (4 Bft) 99,22 %
22.02.2018 20:00 -2,8 C 3,3 C 92 % 1017,8 hPa 0,0 l/m 18,0 km/h (3 Bft) O-NO 0,00 h 0,000 mm 0,0 UV-I 0 W/m -3,9 C -12,1 C 22,7 km/h (4 Bft) 97,80 %
22.02.2018 21:00 -3,1 C 3,3 C 92 % 1017,5 hPa 0,0 l/m 18,7 km/h (3 Bft) O-NO 0,00 h 0,000 mm 0,0 UV-I 0 W/m -4,2 C -12,9 C 23,4 km/h (4 Bft) 98,39 %
22.02.2018 22:00 -3,4 C 3,3 C 91 % 1017,5 hPa 0,0 l/m 19,1 km/h (3 Bft) O 0,00 h 0,000 mm 0,0 UV-I 0 W/m -4,6 C -13,5 C 24,3 km/h (4 Bft) 96,12 %
22.02.2018 23:00 -3,4 C 3,3 C 89 % 1017,4 hPa 0,0 l/m 19,4 km/h (3 Bft) O 0,00 h 0,000 mm 0,0 UV-I 0 W/m -4,9 C -13,7 C 24,9 km/h (4 Bft) 99,08 %
23.02.2018 00:00 -3,4 C 3,3 C 89 % 1017,3 hPa 0,0 l/m 21,8 km/h (4 Bft) O 0,00 h 0,000 mm 0,0 UV-I 0 W/m -4,9 C -14,8 C 28,7 km/h (4 Bft) 97,93 %
23.02.2018 01:00 -3,5 C 3,3 C 89 % 1017,1 hPa 0,0 l/m 19,9 km/h (4 Bft) O 0,00 h 0,025 mm 0,0 UV-I 0 W/m -5,1 C -14,0 C 26,3 km/h (4 Bft) 99,38 %
23.02.2018 02:00 -3,7 C 3,3 C 88 % 1016,8 hPa 0,0 l/m 19,4 km/h (3 Bft) O 0,00 h 0,026 mm 0,0 UV-I 0 W/m -5,4 C -14,0 C 25,2 km/h (4 Bft) 95,48 %
23.02.2018 03:00 -3,7 C 3,3 C 87 % 1016,5 hPa 0,0 l/m 20,2 km/h (4 Bft) O-NO 0,00 h 0,025 mm 0,0 UV-I 0 W/m -5,6 C -14,5 C 25,8 km/h (4 Bft) 98,45 %
23.02.2018 04:00 -3,8 C 3,3 C 87 % 1016,4 hPa 0,0 l/m 20,4 km/h (4 Bft) O-NO 0,00 h 0,026 mm 0,0 UV-I 0 W/m -5,6 C -14,6 C 26,0 km/h (4 Bft) 97,27 %
23.02.2018 05:00 -3,9 C 3,3 C 88 % 1016,4 hPa 0,0 l/m 16,9 km/h (3 Bft) O-NO 0,00 h 0,025 mm 0,0 UV-I 0 W/m -5,6 C -12,9 C 21,4 km/h (4 Bft) 98,44 %
23.02.2018 06:00 -4,1 C 3,3 C 89 % 1016,4 hPa 0,0 l/m 17,1 km/h (3 Bft) O-NO 0,00 h 0,000 mm 0,0 UV-I 5 W/m -5,6 C -13,2 C 21,8 km/h (4 Bft) 96,00 %
23.02.2018 07:00 -4,0 C 3,3 C 89 % 1016,8 hPa 0,0 l/m 17,2 km/h (3 Bft) O-NO 0,00 h 0,000 mm 0,0 UV-I 21 W/m -5,6 C -13,2 C 22,3 km/h (4 Bft) 97,53 %
23.02.2018 08:00 -3,7 C 3,3 C 87 % 1016,9 hPa 0,0 l/m 21,1 km/h (4 Bft) O-NO 0,00 h 0,025 mm 0,0 UV-I 63 W/m -5,6 C -14,9 C 26,7 km/h (4 Bft) 97,58 %
23.02.2018 09:00 -3,4 C 3,3 C 86 % 1017,1 hPa 0,0 l/m 24,0 km/h (4 Bft) O 0,00 h 0,026 mm 0,5 UV-I 144 W/m -5,4 C -15,8 C 31,7 km/h (5 Bft) 98,37 %
23.02.2018 10:00 -3,0 C 3,3 C 84 % 1017,3 hPa 0,0 l/m 25,6 km/h (4 Bft) O 0,18 h 0,051 mm 0,8 UV-I 241 W/m -5,3 C -16,0 C 33,5 km/h (5 Bft) 97,84 %
23.02.2018 11:00 -2,6 C 3,3 C 84 % 1017,3 hPa 0,0 l/m 27,2 km/h (4 Bft) O-NO 0,68 h 0,101 mm 1,1 UV-I 352 W/m -4,9 C -16,1 C 34,8 km/h (5 Bft) 96,54 %
23.02.2018 12:00 -2,2 C 3,3 C 85 % 1017,1 hPa 0,0 l/m 22,1 km/h (4 Bft) O 0,68 h 0,127 mm 1,2 UV-I 365 W/m -4,3 C -13,4 C 28,9 km/h (5 Bft) 97,05 %
23.02.2018 13:00 -2,0 C 3,3 C 86 % 1017,0 hPa 0,0 l/m 22,7 km/h (4 Bft) O 0,20 h 0,127 mm 0,9 UV-I 215 W/m -4,1 C -13,5 C 29,5 km/h (5 Bft) 98,74 %
23.02.2018 14:00 -1,7 C 3,3 C 85 % 1016,8 hPa 0,0 l/m 23,0 km/h (4 Bft) O-NO 0,33 h 0,076 mm 0,6 UV-I 210 W/m -4,0 C -13,2 C 29,4 km/h (5 Bft) 97,99 %
23.02.2018 15:00 -1,7 C 3,3 C 84 % 1017,2 hPa 0,0 l/m 21,8 km/h (4 Bft) O-NO 0,00 h 0,077 mm 0,5 UV-I 134 W/m -4,1 C -12,7 C 28,4 km/h (4 Bft) 97,81 %
23.02.2018 16:00 -1,8 C 3,3 C 84 % 1017,3 hPa 0,0 l/m 20,9 km/h (4 Bft) O 0,93 h 0,050 mm 0,0 UV-I 134 W/m -4,2 C -12,2 C 27,6 km/h (4 Bft) 95,61 %
23.02.2018 17:00 -2,3 C 3,3 C 84 % 1017,6 hPa 0,0 l/m 18,4 km/h (3 Bft) O 0,47 h 0,051 mm 0,0 UV-I 26 W/m -4,6 C -11,7 C 24,2 km/h (4 Bft) 98,21 %
23.02.2018 18:00 -2,6 C 3,3 C 85 % 1018,0 hPa 0,0 l/m 17,7 km/h (3 Bft) O-NO 0,00 h 0,026 mm 0,0 UV-I 0 W/m -4,7 C -11,7 C 23,0 km/h (4 Bft) 97,94 %
23.02.2018 19:00 -2,5 C 3,3 C 86 % 1018,3 hPa 0,0 l/m 18,3 km/h (3 Bft) O-NO 0,00 h 0,025 mm 0,0 UV-I 0 W/m -4,5 C -11,9 C 24,1 km/h (4 Bft) 98,82 %
23.02.2018 20:00 -2,5 C 3,3 C 87 % 1018,6 hPa 0,0 l/m 20,8 km/h (4 Bft) O 0,00 h 0,025 mm 0,0 UV-I 0 W/m -4,3 C -13,1 C 27,3 km/h (4 Bft) 96,29 %
23.02.2018 21:00 -2,6 C 3,3 C 87 % 1018,8 hPa 0,0 l/m 23,7 km/h (4 Bft) O 0,00 h 0,026 mm 0,0 UV-I 0 W/m -4,5 C -14,6 C 31,3 km/h (5 Bft) 97,37 %
23.02.2018 22:00 -2,8 C 3,3 C 85 % 1018,8 hPa 0,0 l/m 25,4 km/h (4 Bft) O 0,00 h 0,025 mm 0,0 UV-I 0 W/m -5,0 C -15,6 C 33,7 km/h (5 Bft) 96,99 %
23.02.2018 23:00 -3,1 C 3,3 C 82 % 1019,0 hPa 0,0 l/m 27,9 km/h (4 Bft) O 0,00 h 0,026 mm 0,0 UV-I 0 W/m -5,6 C -16,9 C 38,0 km/h (5 Bft) 99,40 %
24.02.2018 00:00 -3,3 C 3,3 C 84 % 1019,3 hPa 0,0 l/m 24,9 km/h (4 Bft) O-NO 0,00 h 0,000 mm 0,0 UV-I 0 W/m -5,7 C -16,1 C 32,7 km/h (5 Bft) 97,06 %
24.02.2018 01:00 -3,5 C 3,3 C 84 % 1019,4 hPa 0,0 l/m 23,1 km/h (4 Bft) O 0,00 h 0,025 mm 0,0 UV-I 0 W/m -5,8 C -15,5 C 30,2 km/h (5 Bft) 97,52 %
24.02.2018 02:00 -3,7 C 3,3 C 83 % 1019,4 hPa 0,0 l/m 24,8 km/h (4 Bft) O 0,00 h 0,026 mm 0,0 UV-I 0 W/m -6,2 C -16,5 C 32,5 km/h (5 Bft) 97,91 %
24.02.2018 03:00 -3,8 C 3,3 C 81 % 1019,7 hPa 0,0 l/m 21,7 km/h (4 Bft) O-NO 0,00 h 0,025 mm 0,0 UV-I 0 W/m -6,5 C -15,3 C 28,5 km/h (4 Bft) 99,33 %
24.02.2018 04:00 -4,0 C 3,3 C 82 % 1020,0 hPa 0,0 l/m 21,1 km/h (4 Bft) O 0,00 h 0,026 mm 0,0 UV-I 0 W/m -6,6 C -15,3 C 27,1 km/h (4 Bft) 97,46 %
24.02.2018 05:00 -4,2 C 3,3 C 82 % 1020,3 hPa 0,0 l/m 22,9 km/h (4 Bft) O 0,00 h 0,025 mm 0,0 UV-I 0 W/m -6,8 C -16,4 C 29,3 km/h (5 Bft) 96,78 %
24.02.2018 06:00 -4,6 C 3,3 C 82 % 1020,5 hPa 0,0 l/m 21,3 km/h (4 Bft) O 0,00 h 0,025 mm 0,0 UV-I 6 W/m -7,2 C -16,2 C 27,1 km/h (4 Bft) 97,43 %
24.02.2018 07:00 -5,1 C 3,3 C 81 % 1021,1 hPa 0,0 l/m 17,7 km/h (3 Bft) O-NO 0,78 h 0,026 mm 0,0 UV-I 64 W/m -7,8 C -14,7 C 22,7 km/h (4 Bft) 99,38 %
24.02.2018 08:00 -5,1 C 3,3 C 80 % 1021,5 hPa 0,0 l/m 17,5 km/h (3 Bft) O-NO 1,00 h 0,025 mm 0,4 UV-I 189 W/m -8,0 C -14,6 C 22,3 km/h (4 Bft) 98,09 %
24.02.2018 09:00 -4,4 C 3,3 C 78 % 1021,8 hPa 0,0 l/m 21,7 km/h (4 Bft) O-NO 0,98 h 0,076 mm 0,7 UV-I 330 W/m -7,7 C -16,1 C 27,7 km/h (4 Bft) 98,58 %
24.02.2018 10:00 -3,7 C 3,3 C 75 % 1022,0 hPa 0,0 l/m 22,1 km/h (4 Bft) O 1,00 h 0,102 mm 1,2 UV-I 460 W/m -7,6 C -15,4 C 28,4 km/h (4 Bft) 98,93 %
24.02.2018 11:00 -2,9 C 3,3 C 69 % 1022,0 hPa 0,0 l/m 19,1 km/h (3 Bft) O 1,00 h 0,152 mm 1,5 UV-I 533 W/m -7,7 C -12,9 C 24,2 km/h (4 Bft) 97,95 %
24.02.2018 12:00 -2,1 C 3,3 C 63 % 1021,5 hPa 0,0 l/m 17,0 km/h (3 Bft) O 1,00 h 0,204 mm 1,6 UV-I 532 W/m -8,2 C -10,6 C 22,0 km/h (4 Bft) 98,44 %
24.02.2018 13:00 -1,4 C 3,3 C 59 % 1021,0 hPa 0,0 l/m 15,4 km/h (3 Bft) O 1,00 h 0,203 mm 1,4 UV-I 485 W/m -8,4 C -8,8 C 20,0 km/h (4 Bft) 99,44 %
24.02.2018 14:00 -0,7 C 3,3 C 56 % 1020,7 hPa 0,0 l/m 14,3 km/h (3 Bft) O 1,00 h 0,203 mm 1,0 UV-I 394 W/m -8,3 C -7,4 C 19,0 km/h (3 Bft) 98,29 %
24.02.2018 15:00 -0,9 C 3,3 C 59 % 1020,8 hPa 0,0 l/m 14,9 km/h (3 Bft) O 0,70 h 0,178 mm 0,6 UV-I 216 W/m -7,9 C -7,9 C 19,6 km/h (3 Bft) 98,27 %
24.02.2018 16:00 -1,2 C 3,3 C 63 % 1021,3 hPa 0,0 l/m 12,9 km/h (3 Bft) O 0,00 h 0,101 mm 0,0 UV-I 51 W/m -7,4 C -6,9 C 16,3 km/h (3 Bft) 98,50 %
24.02.2018 17:00 -1,6 C 3,3 C 66 % 1021,9 hPa 0,0 l/m 11,9 km/h (2 Bft) O-NO 0,00 h 0,051 mm 0,0 UV-I 9 W/m -7,1 C -6,6 C 15,6 km/h (3 Bft) 95,94 %
24.02.2018 18:00 -2,0 C 3,3 C 66 % 1022,6 hPa 0,0 l/m 14,1 km/h (3 Bft) NO 0,00 h 0,026 mm 0,0 UV-I 0 W/m -7,6 C -8,6 C 18,4 km/h (3 Bft) 98,93 %
24.02.2018 19:00 -2,8 C 3,3 C 63 % 1023,1 hPa 0,0 l/m 21,8 km/h (4 Bft) O-NO 0,00 h 0,025 mm 0,0 UV-I 0 W/m -8,9 C -13,9 C 28,1 km/h (4 Bft) 98,19 %
24.02.2018 20:00 -4,3 C 3,3 C 64 % 1023,9 hPa 0,0 l/m 23,4 km/h (4 Bft) O-NO 0,00 h 0,051 mm 0,0 UV-I 0 W/m -10,0 C -16,7 C 30,5 km/h (5 Bft) 98,09 %
24.02.2018 21:00 -4,9 C 3,3 C 62 % 1024,3 hPa 0,0 l/m 21,7 km/h (4 Bft) O-NO 0,00 h 0,051 mm 0,0 UV-I 0 W/m -11,0 C -16,8 C 29,0 km/h (5 Bft) 96,73 %
24.02.2018 22:00 -5,6 C 3,3 C 66 % 1024,8 hPa 0,0 l/m 18,1 km/h (3 Bft) O-NO 0,00 h 0,050 mm 0,0 UV-I 0 W/m -10,9 C -15,7 C 24,0 km/h (4 Bft) 98,22 %
24.02.2018 23:00 -6,4 C 3,3 C 71 % 1025,2 hPa 0,0 l/m 16,1 km/h (3 Bft) O-NO 0,00 h 0,026 mm 0,0 UV-I 0 W/m -10,8 C -15,4 C 21,5 km/h (4 Bft) 98,23 %
25.02.2018 00:00 -6,7 C 3,3 C 71 % 1025,2 hPa 0,0 l/m 19,4 km/h (3 Bft) O-NO 0,00 h 0,000 mm 0,0 UV-I 0 W/m -11,0 C -17,9 C 25,2 km/h (4 Bft) 97,92 %
25.02.2018 01:00 -7,2 C 3,3 C 73 % 1025,2 hPa 0,0 l/m 16,3 km/h (3 Bft) O-NO 0,00 h 0,025 mm 0,0 UV-I 0 W/m -11,2 C -16,4 C 21,7 km/h (4 Bft) 96,58 %
25.02.2018 02:00 -7,8 C 3,3 C 75 % 1025,2 hPa 0,0 l/m 13,9 km/h (3 Bft) O-NO 0,00 h 0,026 mm 0,0 UV-I 0 W/m -11,3 C -15,4 C 18,3 km/h (3 Bft) 97,84 %
25.02.2018 03:00 -8,3 C 3,3 C 78 % 1025,1 hPa 0,0 l/m 11,8 km/h (2 Bft) O-NO 0,00 h 0,025 mm 0,0 UV-I 0 W/m -11,5 C -14,1 C 16,0 km/h (3 Bft) 98,73 %
25.02.2018 04:00 -8,7 C 3,3 C 77 % 1025,2 hPa 0,0 l/m 13,3 km/h (3 Bft) O-NO 0,00 h 0,026 mm 0,0 UV-I 0 W/m -12,0 C -16,1 C 17,9 km/h (3 Bft) 97,38 %
25.02.2018 05:00 -9,2 C 3,3 C 78 % 1025,2 hPa 0,0 l/m 13,2 km/h (3 Bft) O-NO 0,00 h 0,025 mm 0,0 UV-I 0 W/m -12,3 C -16,5 C 18,1 km/h (3 Bft) 97,05 %
25.02.2018 06:00 -9,6 C 3,3 C 78 % 1025,4 hPa 0,0 l/m 12,9 km/h (3 Bft) O-NO 0,00 h 0,025 mm 0,0 UV-I 7 W/m -12,6 C -16,7 C 17,2 km/h (3 Bft) 97,82 %
25.02.2018 07:00 -9,5 C 3,3 C 79 % 1025,7 hPa 0,0 l/m 11,1 km/h (2 Bft) O-NO 0,75 h 0,026 mm 0,0 UV-I 64 W/m -12,5 C -14,9 C 14,9 km/h (3 Bft) 99,49 %
25.02.2018 08:00 -8,6 C 3,3 C 75 % 1025,7 hPa 0,0 l/m 18,8 km/h (3 Bft) O-NO 1,00 h 0,025 mm 0,0 UV-I 214 W/m -12,3 C -19,8 C 24,6 km/h (4 Bft) 98,15 %
25.02.2018 09:00 -8,1 C 3,3 C 69 % 1025,7 hPa 0,0 l/m 22,5 km/h (4 Bft) O-NO 0,83 h 0,076 mm 0,6 UV-I 319 W/m -12,8 C -21,4 C 28,5 km/h (4 Bft) 98,84 %
25.02.2018 10:00 -7,4 C 3,3 C 69 % 1025,6 hPa 0,0 l/m 21,9 km/h (4 Bft) O-NO 0,70 h 0,102 mm 0,9 UV-I 446 W/m -12,2 C -20,2 C 28,3 km/h (4 Bft) 99,08 %
25.02.2018 11:00 -6,8 C 3,3 C 67 % 1025,5 hPa 0,0 l/m 19,3 km/h (3 Bft) O 0,88 h 0,152 mm 1,2 UV-I 562 W/m -11,8 C -17,9 C 25,4 km/h (4 Bft) 98,44 %
25.02.2018 12:00 -6,7 C 3,7 C 66 % 1025,0 hPa 0,0 l/m 17,1 km/h (3 Bft) O 0,73 h 0,178 mm 1,2 UV-I 460 W/m -11,9 C -16,4 C 22,4 km/h (4 Bft) 98,38 %
25.02.2018 13:00 -6,1 C 3,9 C 65 % 1024,5 hPa 0,0 l/m 15,7 km/h (3 Bft) O 1,00 h 0,153 mm 1,1 UV-I 495 W/m -11,6 C -14,6 C 21,0 km/h (4 Bft) 98,39 %
25.02.2018 14:00 -5,6 C 3,9 C 64 % 1023,9 hPa 0,0 l/m 14,3 km/h (3 Bft) O 1,00 h 0,152 mm 0,8 UV-I 403 W/m -11,3 C -13,1 C 19,4 km/h (3 Bft) 99,21 %
25.02.2018 15:00 -5,6 C 3,9 C 64 % 1023,6 hPa 0,0 l/m 13,7 km/h (3 Bft) O 1,00 h 0,127 mm 0,5 UV-I 276 W/m -11,2 C -12,5 C 18,5 km/h (3 Bft) 97,19 %
25.02.2018 16:00 -5,9 C 3,9 C 65 % 1023,4 hPa 0,0 l/m 13,1 km/h (3 Bft) O 1,00 h 0,102 mm 0,0 UV-I 134 W/m -11,5 C -12,5 C 17,3 km/h (3 Bft) 97,56 %
25.02.2018 17:00 -6,5 C 3,9 C 67 % 1023,7 hPa 0,0 l/m 12,1 km/h (2 Bft) O 0,53 h 0,050 mm 0,0 UV-I 28 W/m -11,6 C -12,5 C 16,3 km/h (3 Bft) 97,57 %
25.02.2018 18:00 -7,3 C 3,9 C 72 % 1024,3 hPa 0,0 l/m 10,2 km/h (2 Bft) O-NO 0,00 h 0,026 mm 0,0 UV-I 0 W/m -11,5 C -11,6 C 13,6 km/h (3 Bft) 99,25 %
25.02.2018 19:00 -7,8 C 3,9 C 75 % 1024,7 hPa 0,0 l/m 10,3 km/h (2 Bft) O-NO 0,00 h 0,025 mm 0,0 UV-I 0 W/m -11,4 C -12,2 C 14,1 km/h (3 Bft) 97,04 %
25.02.2018 20:00 -7,7 C 3,9 C 72 % 1024,9 hPa 0,0 l/m 12,0 km/h (2 Bft) O 0,00 h 0,026 mm 0,0 UV-I 0 W/m -11,9 C -13,8 C 16,0 km/h (3 Bft) 97,26 %
25.02.2018 21:00 -8,1 C 3,9 C 71 % 1024,8 hPa 0,0 l/m 9,2 km/h (2 Bft) O 0,00 h 0,025 mm 0,0 UV-I 0 W/m -12,4 C -11,4 C 12,4 km/h (3 Bft) 97,92 %
25.02.2018 22:00 -8,8 C 3,9 C 75 % 1024,6 hPa 0,0 l/m 7,5 km/h (2 Bft) NO 0,00 h 0,025 mm 0,0 UV-I 0 W/m -12,4 C -10,4 C 10,5 km/h (2 Bft) 99,24 %
25.02.2018 23:00 -9,5 C 3,9 C 77 % 1024,8 hPa 0,0 l/m 17,8 km/h (3 Bft) O 0,00 h 0,000 mm 0,0 UV-I 0 W/m -12,8 C -19,9 C 23,6 km/h (4 Bft) 96,99 %
Min-Datum _ 25.02.18 22.02.18 24.02.18 20.02.18 - 19.02.18 - - - - - 25.02.18 25.02.18 19.02.18 21.02.18
_ Min-Zeit 23:53 16:12 14:04 15:43 - 17:19 - - - - - 23:53 23:39 17:19 00:03
Minimum _ -10,1 C 3,3 C 55 % 1014,2 hPa - 0,0 km/h (0 Bft) - - - - - -13,7 C -26,3 C 0,0 km/h (0 Bft) 9,09 %
Max-Datum _ 19.02.18 21.02.18 20.02.18 25.02.18 21.02.18 23.02.18 - 25.02.18 24.02.18 24.02.18 25.02.18 20.02.18 19.02.18 23.02.18 19.02.18
_ Max-Zeit 14:11 18:36 20:53 07:51 11:09 23:42 - 12:02 12:01 11:27 11:27 21:25 14:10 23:22 00:00
Maximum _ 1,2 C 4,4 C 97 % 1025,8 hPa 1,2 l/m 35,9 km/h
O (5 Bft)
- 0,03 h 0,204 mm 1,6 UV-I 728 W/m -0,9 C 0,9 C 53,1 km/h
O (7 Bft)
100,00 %
Durchschnitt _ -2,8 C 3,7 C 84 % 1019,2 hPa #3,0 l/m 12,6 km/h (3 Bft) O-NO #30:08 h #6,476 mm 0,8 UV-I 181 W/m -5,1 C -8,7 C 16,6 km/h (3 Bft) 97,86 %